createdAt,value
2023-04-23T00:01:59.096Z,39.02
2023-04-23T00:04:26.751Z,38.99
2023-04-23T00:06:54.438Z,38.73
2023-04-23T00:09:23.344Z,38.71
2023-04-23T00:11:50.241Z,38.84
2023-04-23T00:14:17.062Z,38.99
2023-04-23T00:16:46.150Z,38.64
2023-04-23T00:19:12.878Z,38.69
2023-04-23T00:21:39.794Z,38.57
2023-04-23T00:24:06.717Z,38.55
2023-04-23T00:26:33.387Z,38.28
2023-04-23T00:29:00.109Z,38.53
2023-04-23T00:31:27.249Z,38.18
2023-04-23T00:33:54.189Z,38.14
2023-04-23T00:36:20.753Z,38.38
2023-04-23T00:38:48.071Z,38.41
2023-04-23T00:41:15.353Z,38.45
2023-04-23T00:43:42.011Z,37.98
2023-04-23T00:46:09.093Z,37.92
2023-04-23T00:48:36.965Z,38.16
2023-04-23T00:51:05.307Z,37.80
2023-04-23T00:53:33.513Z,37.99
2023-04-23T00:56:02.282Z,38.02
2023-04-23T00:58:29.669Z,37.89
2023-04-23T01:00:56.856Z,38.06
2023-04-23T01:03:26.409Z,37.85
2023-04-23T01:05:53.263Z,37.71
2023-04-23T01:08:22.659Z,37.80
2023-04-23T01:10:49.393Z,37.73
2023-04-23T01:13:16.394Z,37.91
2023-04-23T01:15:44.617Z,37.66
2023-04-23T01:18:12.764Z,37.82
2023-04-23T01:20:39.627Z,37.32
2023-04-23T01:23:06.810Z,37.37
2023-04-23T01:25:33.415Z,37.36
2023-04-23T01:28:00.229Z,37.61
2023-04-23T01:30:27.543Z,37.52
2023-04-23T01:32:57.850Z,37.38
2023-04-23T01:35:25.604Z,37.38
2023-04-23T01:37:53.723Z,37.32
2023-04-23T01:40:21.053Z,37.28
2023-04-23T01:42:50.695Z,37.23
2023-04-23T01:45:20.196Z,37.08
2023-04-23T01:47:48.031Z,37.30
2023-04-23T01:50:14.902Z,36.99
2023-04-23T01:52:42.170Z,37.40
2023-04-23T01:55:09.504Z,37.33
2023-04-23T01:57:36.394Z,37.07
2023-04-23T02:00:12.120Z,36.96
2023-04-23T02:02:41.142Z,37.15
2023-04-23T02:05:16.628Z,37.10
2023-04-23T02:07:44.623Z,37.23
2023-04-23T02:10:11.840Z,37.23
2023-04-23T02:12:39.541Z,37.17
2023-04-23T02:15:08.066Z,36.84
2023-04-23T02:17:35.448Z,37.01
2023-04-23T02:20:02.780Z,37.01
2023-04-23T02:22:29.585Z,36.86
2023-04-23T02:24:56.171Z,36.74
2023-04-23T02:27:22.948Z,37.11
2023-04-23T02:29:49.571Z,36.89
2023-04-23T02:32:16.206Z,37.10
2023-04-23T02:34:43.232Z,36.51
2023-04-23T02:37:10.476Z,36.66
2023-04-23T02:39:39.034Z,36.56
2023-04-23T02:42:06.202Z,36.65
2023-04-23T02:44:32.874Z,36.74
2023-04-23T02:46:59.591Z,36.68
2023-04-23T02:49:26.804Z,36.78
2023-04-23T02:51:53.482Z,36.76
2023-04-23T02:54:20.130Z,36.67
2023-04-23T02:56:46.942Z,36.47
2023-04-23T02:59:13.864Z,36.55
2023-04-23T03:01:41.323Z,36.46
2023-04-23T03:04:09.901Z,36.44
2023-04-23T03:06:37.359Z,36.26
2023-04-23T03:09:04.836Z,36.43
2023-04-23T03:11:31.743Z,36.47
2023-04-23T03:13:58.485Z,36.26
2023-04-23T03:16:30.398Z,36.16
2023-04-23T03:18:57.391Z,36.06
2023-04-23T03:21:24.137Z,36.35
2023-04-23T03:23:50.877Z,36.07
2023-04-23T03:26:17.532Z,36.16
2023-04-23T03:28:44.295Z,36.34
2023-04-23T03:31:11.152Z,36.11
2023-04-23T03:33:37.870Z,36.23
2023-04-23T03:36:05.577Z,35.93
2023-04-23T03:38:32.856Z,36.50
2023-04-23T03:41:00.705Z,36.05
2023-04-23T03:43:27.790Z,35.91
2023-04-23T03:46:15.770Z,36.18
2023-04-23T03:48:42.633Z,35.77
2023-04-23T03:51:16.607Z,36.11
2023-04-23T03:53:46.683Z,36.11
2023-04-23T03:56:31.915Z,35.89
2023-04-23T03:59:11.955Z,35.73
2023-04-23T04:01:38.602Z,36.24
2023-04-23T04:04:05.532Z,35.84
2023-04-23T04:06:33.281Z,35.92
2023-04-23T04:08:59.952Z,35.92
2023-04-23T04:11:27.017Z,36.02
2023-04-23T04:13:53.551Z,36.09
2023-04-23T04:16:20.289Z,35.95
2023-04-23T04:18:46.936Z,35.86
2023-04-23T04:21:13.584Z,36.07
2023-04-23T04:23:40.158Z,36.39
2023-04-23T04:26:08.023Z,36.33
2023-04-23T04:28:36.317Z,36.45
2023-04-23T04:31:03.870Z,36.72
2023-04-23T04:33:30.639Z,36.49
2023-04-23T04:35:57.669Z,36.42
2023-04-23T04:38:24.330Z,36.65
2023-04-23T04:40:50.899Z,36.28
2023-04-23T04:43:18.454Z,36.25
2023-04-23T04:45:45.169Z,36.42
2023-04-23T04:48:11.835Z,36.10
2023-04-23T04:50:38.428Z,36.18
2023-04-23T04:53:06.344Z,36.38
2023-04-23T04:55:32.963Z,36.41
2023-04-23T04:57:59.467Z,36.04
2023-04-23T05:00:29.393Z,36.32
2023-04-23T05:02:57.462Z,36.03
2023-04-23T05:05:25.653Z,36.20
2023-04-23T05:07:59.044Z,36.02
2023-04-23T05:10:26.434Z,36.23
2023-04-23T05:12:53.271Z,35.93
2023-04-23T05:15:20.093Z,35.97
2023-04-23T05:17:46.702Z,35.86
2023-04-23T05:20:14.262Z,36.06
2023-04-23T05:22:41.893Z,35.93
2023-04-23T05:25:10.222Z,35.91
2023-04-23T05:27:36.736Z,35.87
2023-04-23T05:30:05.943Z,36.23
2023-04-23T05:32:32.575Z,36.22
2023-04-23T05:35:00.121Z,36.27
2023-04-23T05:37:26.711Z,36.18
2023-04-23T05:39:53.402Z,36.25
2023-04-23T05:42:22.610Z,36.03
2023-04-23T05:44:49.197Z,36.36
2023-04-23T05:47:15.821Z,36.36
2023-04-23T05:49:42.406Z,36.32
2023-04-23T05:52:09.218Z,36.08
2023-04-23T05:54:35.829Z,36.16
2023-04-23T05:57:02.890Z,36.17
2023-04-23T05:59:29.530Z,36.54
2023-04-23T06:01:56.144Z,36.59
2023-04-23T06:04:23.061Z,36.34
2023-04-23T06:06:50.011Z,36.44
2023-04-23T06:09:16.634Z,36.35
2023-04-23T06:11:43.194Z,36.57
2023-04-23T06:14:10.618Z,36.72
2023-04-23T06:16:37.130Z,36.88
2023-04-23T06:19:04.301Z,36.73
2023-04-23T06:21:31.301Z,37.20
2023-04-23T06:23:57.972Z,37.23
2023-04-23T06:26:26.857Z,37.09
2023-04-23T06:28:59.284Z,37.45
2023-04-23T06:31:32.043Z,37.13
2023-04-23T06:33:58.659Z,37.08
2023-04-23T06:36:28.088Z,36.89
2023-04-23T06:38:57.816Z,36.60
2023-04-23T06:41:24.451Z,36.68
2023-04-23T06:44:03.697Z,36.75
2023-04-23T06:46:39.070Z,36.58
2023-04-23T06:49:05.969Z,36.52
2023-04-23T06:51:32.651Z,36.46
2023-04-23T06:53:59.297Z,36.80
2023-04-23T06:56:26.841Z,37.20
2023-04-23T06:58:53.428Z,37.77
2023-04-23T07:01:21.731Z,38.11
2023-04-23T07:03:51.284Z,37.85
2023-04-23T07:06:17.856Z,37.95
2023-04-23T07:08:45.232Z,37.79
2023-04-23T07:11:12.104Z,37.76
2023-04-23T07:13:39.692Z,37.96
2023-04-23T07:16:07.014Z,37.50
2023-04-23T07:18:33.668Z,37.76
2023-04-23T07:21:00.267Z,37.83
2023-04-23T07:23:26.924Z,37.53
2023-04-23T07:25:53.691Z,37.50
2023-04-23T07:28:20.314Z,37.41
2023-04-23T07:30:46.896Z,37.33
2023-04-23T07:33:16.147Z,37.61
2023-04-23T07:35:42.726Z,37.65
2023-04-23T07:38:09.796Z,37.41
2023-04-23T07:40:37.016Z,37.62
2023-04-23T07:43:03.824Z,37.52
2023-04-23T07:45:30.394Z,37.44
2023-04-23T07:47:57.678Z,37.46
2023-04-23T07:50:24.647Z,37.47
2023-04-23T07:52:52.143Z,37.15
2023-04-23T07:55:20.302Z,37.43
2023-04-23T07:57:46.846Z,37.36
2023-04-23T08:00:14.348Z,37.36
2023-04-23T08:02:41.127Z,36.90
2023-04-23T08:05:08.367Z,36.96
2023-04-23T08:07:35.113Z,36.95
2023-04-23T08:10:05.947Z,37.20
2023-04-23T08:12:35.741Z,37.17
2023-04-23T08:15:02.916Z,37.23
2023-04-23T08:17:37.064Z,37.80
2023-04-23T08:20:06.753Z,38.03
2023-04-23T08:24:11.932Z,38.33
2023-04-23T08:26:38.588Z,39.20
2023-04-23T08:29:06.056Z,39.42
2023-04-23T08:31:32.914Z,39.68
2023-04-23T08:33:59.884Z,39.39
2023-04-23T08:36:27.622Z,39.57
2023-04-23T08:38:54.244Z,39.21
2023-04-23T08:41:24.010Z,39.56
2023-04-23T08:43:58.111Z,39.04
2023-04-23T08:46:27.099Z,39.11
2023-04-23T08:48:55.347Z,39.12
2023-04-23T08:51:26.149Z,38.81
2023-04-23T08:53:58.340Z,39.18
2023-04-23T08:56:26.655Z,39.10
2023-04-23T08:58:55.717Z,38.85
2023-04-23T09:01:23.834Z,38.74
2023-04-23T09:03:51.671Z,38.50
2023-04-23T09:06:19.964Z,38.61
2023-04-23T09:08:46.708Z,38.02
2023-04-23T09:11:14.790Z,37.84
2023-04-23T09:13:41.631Z,37.71
2023-04-23T09:16:08.309Z,37.53
2023-04-23T09:18:35.725Z,37.53
2023-04-23T09:21:04.253Z,38.29
2023-04-23T09:23:32.453Z,38.45
2023-04-23T09:25:59.013Z,39.01
2023-04-23T09:28:36.376Z,38.78
2023-04-23T09:31:06.003Z,38.62
2023-04-23T09:33:36.165Z,38.33
2023-04-23T09:36:15.629Z,38.10
2023-04-23T09:38:42.283Z,38.14
2023-04-23T09:41:23.122Z,38.23
2023-04-23T09:43:49.894Z,38.39
2023-04-23T09:46:16.580Z,38.18
2023-04-23T09:48:43.965Z,38.14
2023-04-23T09:51:14.016Z,38.19
2023-04-23T09:53:43.315Z,38.30
2023-04-23T09:56:09.971Z,38.47
2023-04-23T09:58:37.762Z,38.17
2023-04-23T10:01:09.075Z,37.88
2023-04-23T10:03:35.900Z,37.89
2023-04-23T10:06:03.265Z,37.56
2023-04-23T10:08:31.898Z,37.65
2023-04-23T10:11:13.650Z,37.16
2023-04-23T10:13:45.222Z,37.36
2023-04-23T10:16:22.188Z,37.55
2023-04-23T10:18:53.070Z,37.51
2023-04-23T10:21:20.035Z,38.20
2023-04-23T10:23:50.054Z,38.21
2023-04-23T10:26:17.247Z,38.29
2023-04-23T10:28:48.009Z,38.10
2023-04-23T10:31:15.673Z,37.86
2023-04-23T10:33:56.160Z,38.07
2023-04-23T10:36:28.203Z,37.51
2023-04-23T10:38:59.150Z,37.64
2023-04-23T10:41:35.298Z,37.54
2023-04-23T10:44:03.737Z,37.52
2023-04-23T10:46:36.425Z,37.20
2023-04-23T10:49:10.709Z,36.77
2023-04-23T10:54:09.801Z,36.75
2023-04-23T10:56:41.301Z,36.87
2023-04-23T10:59:17.923Z,37.08
2023-04-23T11:01:56.301Z,36.91
2023-04-23T11:04:24.926Z,37.11
2023-04-23T11:06:52.853Z,37.21
2023-04-23T11:09:36.214Z,36.87
2023-04-23T11:12:07.113Z,36.51
2023-04-23T11:14:48.206Z,36.45
2023-04-23T11:17:21.764Z,36.56
2023-04-23T11:20:13.326Z,36.79
2023-04-23T11:22:45.108Z,36.96
2023-04-23T11:25:23.988Z,37.43
2023-04-23T11:27:52.469Z,37.72
2023-04-23T11:30:21.061Z,37.90
2023-04-23T11:32:49.817Z,37.80
2023-04-23T11:35:18.584Z,37.37
2023-04-23T11:37:46.583Z,37.38
2023-04-23T11:40:19.072Z,36.86
2023-04-23T11:42:51.596Z,36.25
2023-04-23T11:45:25.097Z,35.97
2023-04-23T11:47:57.080Z,35.76
2023-04-23T11:50:33.225Z,35.87
2023-04-23T11:53:08.834Z,35.74
2023-04-23T11:55:35.962Z,35.78
2023-04-23T11:58:03.179Z,35.55
2023-04-23T12:00:29.937Z,35.71
2023-04-23T12:03:02.139Z,35.61
2023-04-23T12:05:44.122Z,35.82
2023-04-23T12:08:17.269Z,35.73
2023-04-23T12:11:00.591Z,35.57
2023-04-23T12:13:33.547Z,35.76
2023-04-23T12:16:03.356Z,35.72
2023-04-23T12:18:38.993Z,35.76
2023-04-23T12:21:06.702Z,35.87
2023-04-23T12:23:35.873Z,35.42
2023-04-23T12:26:06.792Z,35.65
2023-04-23T12:28:33.294Z,35.44
2023-04-23T12:31:03.063Z,35.14
2023-04-23T12:33:30.776Z,35.08
2023-04-23T12:35:58.018Z,34.98
2023-04-23T12:38:25.748Z,35.14
2023-04-23T12:40:56.802Z,35.47
2023-04-23T12:43:28.097Z,35.45
2023-04-23T12:45:55.867Z,35.32
2023-04-23T12:48:22.473Z,35.30
2023-04-23T12:50:49.176Z,35.20
2023-04-23T12:53:15.700Z,35.33
2023-04-23T12:55:44.270Z,35.35
2023-04-23T12:58:11.950Z,35.16
2023-04-23T13:00:38.937Z,35.09
2023-04-23T13:03:09.294Z,35.21
2023-04-23T13:05:36.441Z,35.16
2023-04-23T13:08:02.961Z,35.07
2023-04-23T13:10:30.930Z,35.29
2023-04-23T13:12:57.532Z,34.99
2023-04-23T13:15:25.741Z,34.92
2023-04-23T13:17:53.555Z,35.11
2023-04-23T13:20:21.248Z,35.03
2023-04-23T13:22:47.812Z,35.22
2023-04-23T13:25:15.611Z,35.11
2023-04-23T13:27:42.151Z,34.85
2023-04-23T13:30:09.261Z,35.06
2023-04-23T13:32:35.954Z,35.12
2023-04-23T13:35:04.903Z,35.32
2023-04-23T13:37:31.868Z,35.68
2023-04-23T13:39:58.504Z,35.83
2023-04-23T13:42:25.202Z,36.21
2023-04-23T13:44:51.875Z,36.26
2023-04-23T13:47:18.455Z,36.28
2023-04-23T13:49:45.062Z,36.36
2023-04-23T13:52:11.629Z,36.58
2023-04-23T13:54:39.252Z,36.65
2023-04-23T13:57:06.014Z,36.90
2023-04-23T13:59:32.742Z,37.15
2023-04-23T14:01:59.324Z,36.98
2023-04-23T14:04:26.960Z,36.97
2023-04-23T14:06:53.881Z,36.80
2023-04-23T14:09:22.215Z,36.90
2023-04-23T14:11:49.069Z,36.89
2023-04-23T14:14:16.507Z,36.83
2023-04-23T14:16:43.083Z,36.90
2023-04-23T14:19:09.682Z,36.83
2023-04-23T14:21:36.346Z,36.86
2023-04-23T14:24:10.021Z,36.73
2023-04-23T14:26:47.861Z,36.83
2023-04-23T14:29:44.631Z,36.55
2023-04-23T14:32:12.448Z,36.56
2023-04-23T14:34:39.557Z,36.61
2023-04-23T14:37:06.319Z,36.54
2023-04-23T14:39:34.432Z,36.53
2023-04-23T14:42:01.192Z,36.37
2023-04-23T14:44:27.819Z,36.22
2023-04-23T14:46:55.261Z,36.22
2023-04-23T14:49:22.131Z,36.31
2023-04-23T14:51:55.705Z,36.23
2023-04-23T14:54:22.711Z,36.30
2023-04-23T14:56:50.823Z,36.07
2023-04-23T14:59:17.709Z,36.29
2023-04-23T15:01:46.944Z,36.25
2023-04-23T15:04:15.300Z,36.29
2023-04-23T15:06:41.949Z,36.11
2023-04-23T15:09:09.131Z,36.21
2023-04-23T15:11:37.903Z,36.10
2023-04-23T15:14:25.633Z,36.38
2023-04-23T15:16:52.567Z,36.13
2023-04-23T15:19:19.363Z,36.10
2023-04-23T15:21:49.058Z,36.16
2023-04-23T15:24:16.619Z,35.94
2023-04-23T15:26:44.131Z,36.18
2023-04-23T15:29:13.486Z,35.96
2023-04-23T15:31:40.704Z,36.00
2023-04-23T15:34:09.023Z,36.16
2023-04-23T15:36:37.330Z,36.06
2023-04-23T15:39:04.154Z,35.94
2023-04-23T15:41:30.672Z,35.77
2023-04-23T15:43:57.384Z,35.82
2023-04-23T15:46:23.907Z,35.98
2023-04-23T15:48:50.912Z,35.99
2023-04-23T15:51:17.819Z,35.96
2023-04-23T15:53:44.448Z,35.74
2023-04-23T15:56:11.453Z,36.02
2023-04-23T15:58:38.101Z,35.74
2023-04-23T16:01:07.022Z,35.74
2023-04-23T16:03:34.254Z,35.68
2023-04-23T16:06:01.373Z,35.64
2023-04-23T16:08:28.072Z,35.92
2023-04-23T16:10:56.933Z,35.82
2023-04-23T16:13:24.265Z,35.74
2023-04-23T16:15:51.897Z,35.90
2023-04-23T16:18:18.518Z,35.79
2023-04-23T16:20:45.152Z,35.60
2023-04-23T16:23:11.826Z,35.62
2023-04-23T16:25:38.753Z,35.83
2023-04-23T16:28:05.541Z,35.66
2023-04-23T16:30:32.130Z,35.74
2023-04-23T16:32:58.770Z,35.51
2023-04-23T16:35:25.475Z,35.39
2023-04-23T16:37:52.303Z,35.84
2023-04-23T16:40:19.242Z,35.54
2023-04-23T16:42:48.702Z,35.54
2023-04-23T16:45:15.553Z,35.53
2023-04-23T16:47:43.608Z,35.37
2023-04-23T16:50:10.723Z,35.40
2023-04-23T16:52:37.405Z,35.59
2023-04-23T16:55:05.548Z,35.54
2023-04-23T16:57:32.852Z,35.80
2023-04-23T16:59:59.517Z,36.04
2023-04-23T17:02:26.285Z,36.08
2023-04-23T17:04:55.515Z,36.17
2023-04-23T17:07:22.473Z,36.39
2023-04-23T17:09:49.393Z,36.96
2023-04-23T17:12:16.059Z,37.31
2023-04-23T17:14:42.829Z,37.67
2023-04-23T17:17:09.606Z,37.69
2023-04-23T17:19:36.522Z,37.79
2023-04-23T17:22:03.374Z,37.77
2023-04-23T17:24:30.033Z,38.01
2023-04-23T17:26:56.818Z,37.72
2023-04-23T17:29:23.379Z,37.76
2023-04-23T17:31:50.433Z,37.86
2023-04-23T17:34:17.043Z,37.96
2023-04-23T17:36:44.070Z,37.91
2023-04-23T17:39:10.802Z,37.99
2023-04-23T17:41:38.334Z,37.96
2023-04-23T17:44:05.097Z,37.89
2023-04-23T17:46:31.792Z,37.79
2023-04-23T17:48:58.614Z,38.28
2023-04-23T17:51:25.399Z,38.36
2023-04-23T17:53:52.081Z,38.25
2023-04-23T17:56:18.830Z,38.13
2023-04-23T17:58:45.395Z,38.39
2023-04-23T18:01:12.285Z,38.00
2023-04-23T18:03:39.018Z,37.92
2023-04-23T18:06:08.396Z,37.84
2023-04-23T18:08:40.536Z,37.46
2023-04-23T18:11:09.031Z,38.05
2023-04-23T18:13:36.345Z,37.93
2023-04-23T18:16:02.992Z,37.70
2023-04-23T18:18:29.652Z,37.41
2023-04-23T18:20:56.966Z,37.45
2023-04-23T18:23:31.222Z,37.52
2023-04-23T18:26:01.314Z,37.23
2023-04-23T18:28:28.734Z,37.46
2023-04-23T18:31:01.945Z,37.45
2023-04-23T18:33:40.882Z,37.19
2023-04-23T18:36:31.874Z,37.66
2023-04-23T18:38:58.959Z,37.99
2023-04-23T18:41:28.638Z,38.40
2023-04-23T18:43:55.728Z,38.71
2023-04-23T18:46:23.321Z,39.17
2023-04-23T18:49:03.446Z,39.25
2023-04-23T18:51:50.424Z,39.02
2023-04-23T18:54:21.229Z,39.11
2023-04-23T18:56:48.735Z,39.10
2023-04-23T18:59:19.707Z,38.74
2023-04-23T19:01:50.711Z,38.68
2023-04-23T19:04:18.267Z,38.83
2023-04-23T19:06:45.009Z,38.72
2023-04-23T19:09:17.031Z,38.65
2023-04-23T19:11:43.810Z,38.68
2023-04-23T19:14:10.841Z,38.47
2023-04-23T19:16:37.817Z,38.62
2023-04-23T19:19:04.575Z,38.59
2023-04-23T19:21:34.094Z,38.54
2023-04-23T19:24:00.908Z,38.50
2023-04-23T19:26:27.699Z,38.47
2023-04-23T19:28:54.322Z,38.62
2023-04-23T19:31:21.059Z,38.46
2023-04-23T19:33:47.991Z,38.29
2023-04-23T19:36:16.264Z,38.22
2023-04-23T19:38:42.905Z,38.29
2023-04-23T19:41:09.643Z,38.28
2023-04-23T19:43:36.489Z,38.04
2023-04-23T19:46:03.506Z,38.29
2023-04-23T19:48:31.079Z,38.20
2023-04-23T19:50:59.377Z,38.41
2023-04-23T19:53:27.539Z,37.95
2023-04-23T19:55:54.370Z,38.16
2023-04-23T19:58:20.898Z,38.12
2023-04-23T20:00:47.710Z,38.09
2023-04-23T20:03:14.794Z,38.37
2023-04-23T20:05:44.708Z,38.85
2023-04-23T20:08:15.338Z,39.67
2023-04-23T20:10:42.786Z,40.07
2023-04-23T20:13:09.299Z,40.35
2023-04-23T20:15:39.688Z,40.43
2023-04-23T20:18:06.292Z,40.33
2023-04-23T20:20:36.100Z,40.17
2023-04-23T20:23:02.753Z,40.02
2023-04-23T20:25:29.489Z,40.13
2023-04-23T20:27:56.996Z,40.10
2023-04-23T20:30:23.779Z,40.22
2023-04-23T20:32:50.456Z,40.36
2023-04-23T20:35:17.295Z,40.32
2023-04-23T20:37:44.250Z,40.44
2023-04-23T20:40:11.800Z,40.44
2023-04-23T20:42:39.419Z,40.53
2023-04-23T20:45:09.583Z,40.32
2023-04-23T20:47:36.717Z,40.57
2023-04-23T20:50:04.178Z,40.29
2023-04-23T20:52:31.704Z,40.30
2023-04-23T20:54:58.335Z,40.12
2023-04-23T20:57:25.206Z,40.02
2023-04-23T20:59:51.768Z,40.59
2023-04-23T21:02:18.535Z,41.02
2023-04-23T21:04:45.192Z,41.78
2023-04-23T21:07:12.207Z,41.96
2023-04-23T21:09:38.849Z,42.19
2023-04-23T21:12:08.252Z,42.28
2023-04-23T21:14:38.069Z,42.35
2023-04-23T21:17:04.909Z,42.78
2023-04-23T21:19:31.657Z,42.71
2023-04-23T21:21:58.663Z,43.09
2023-04-23T21:24:25.178Z,42.87
2023-04-23T21:26:51.829Z,42.98
2023-04-23T21:29:18.375Z,43.18
2023-04-23T21:31:47.373Z,43.00
2023-04-23T21:34:15.364Z,43.21
2023-04-23T21:36:46.604Z,43.21
2023-04-23T21:39:15.992Z,43.67
2023-04-23T21:41:42.688Z,43.34
2023-04-23T21:44:09.401Z,43.30
2023-04-23T21:46:36.082Z,43.30
2023-04-23T21:49:02.838Z,43.51
2023-04-23T21:51:30.053Z,43.75
2023-04-23T21:53:57.231Z,43.71
2023-04-23T21:56:23.817Z,43.57
2023-04-23T21:58:50.530Z,43.45
2023-04-23T22:01:18.192Z,43.48
2023-04-23T22:03:46.572Z,43.67
2023-04-23T22:06:15.804Z,43.77
2023-04-23T22:08:44.497Z,43.44
2023-04-23T22:11:11.372Z,43.38
2023-04-23T22:13:38.405Z,43.71
2023-04-23T22:16:10.725Z,43.79
2023-04-23T22:18:44.734Z,43.43
2023-04-23T22:21:11.351Z,43.61
2023-04-23T22:23:38.103Z,43.58
2023-04-23T22:26:05.836Z,43.71
2023-04-23T22:28:32.557Z,43.71
2023-04-23T22:30:59.126Z,43.91
2023-04-23T22:33:27.468Z,44.49
2023-04-23T22:35:55.974Z,44.69
2023-04-23T22:38:22.534Z,44.82
2023-04-23T22:40:49.118Z,44.93
2023-04-23T22:43:15.665Z,45.08
2023-04-23T22:45:42.327Z,44.85
2023-04-23T22:48:08.982Z,44.68
2023-04-23T22:50:35.561Z,44.68
2023-04-23T22:53:02.147Z,44.75
2023-04-23T22:55:29.030Z,44.53
2023-04-23T22:57:55.902Z,44.55
2023-04-23T23:00:22.747Z,44.48
2023-04-23T23:02:49.455Z,44.26
2023-04-23T23:05:16.157Z,44.47
2023-04-23T23:07:42.734Z,44.32
2023-04-23T23:10:09.846Z,44.19
2023-04-23T23:12:37.067Z,44.41
2023-04-23T23:15:03.961Z,44.23
2023-04-23T23:17:30.564Z,44.24
2023-04-23T23:19:57.107Z,44.34
2023-04-23T23:22:25.639Z,44.16
2023-04-23T23:24:52.247Z,44.12
2023-04-23T23:27:18.954Z,44.06
2023-04-23T23:29:45.944Z,43.73
2023-04-23T23:32:12.675Z,44.01
2023-04-23T23:34:39.357Z,43.65
2023-04-23T23:37:05.941Z,43.96
2023-04-23T23:39:32.518Z,43.68
2023-04-23T23:41:59.876Z,43.65
2023-04-23T23:44:26.529Z,43.71
2023-04-23T23:46:53.244Z,43.59
2023-04-23T23:49:20.366Z,43.43
2023-04-23T23:51:47.187Z,43.59
2023-04-23T23:54:13.859Z,43.45
2023-04-23T23:56:40.485Z,43.54
2023-04-23T23:59:06.956Z,43.35
